This is the latest recevied weather packets stored in our database for station/object K1ABC. If no packets are shown the sender has not sent any weather packets the latest 10 day(s).
| Time | Temp. | Humidity | Pressure | Rain* | Wind** | Luminosity | Snow |
|---|---|---|---|---|---|---|---|
| 1777875449 | 5.56° C | 64% | 1009.5 hPa | 0 mm | - | - | - |
| 1777873631 | 5° C | 64% | 1009.5 hPa | 0 mm | - | - | - |
| 1777872612 | 5° C | 66% | 1009.6 hPa | 0 mm | - | - | - |
| 1777872492 | 5° C | 65% | 1009.5 hPa | 0 mm | - | - | - |
| 1777872247 | 5° C | 64% | 1009.5 hPa | 0 mm | - | - | - |
| 1777871752 | 5° C | 65% | 1009.4 hPa | 0 mm | - | - | - |
| 1777870874 | 5° C | 65% | 1009.5 hPa | 0 mm | - | - | - |
| 1777869228 | 4.44° C | 67% | 1009.4 hPa | 0 mm | - | - | - |
| 1777869103 | 4.44° C | 67% | 1009.4 hPa | 0 mm | - | - | - |
| 1777868419 | 5° C | 67% | 1009.4 hPa | 0 mm | - | - | - |
| 1777868171 | 5° C | 66% | 1009.4 hPa | 0 mm | - | - | - |
| 1777867794 | 5° C | 65% | 1009.3 hPa | 0 mm | - | - | - |
| 1777867665 | 5° C | 65% | 1009.3 hPa | 0 mm | - | - | - |
| 1777867096 | 5° C | 66% | 1009.2 hPa | 0 mm | - | - | - |
| 1777866970 | 5° C | 66% | 1009.2 hPa | 0 mm | - | - | - |
| 1777865969 | 5° C | 67% | 1009.1 hPa | 0 mm | - | - | - |
| 1777864657 | 5.56° C | 65% | 1009.2 hPa | 0 mm | - | - | - |
| 1777862972 | 5.56° C | 65% | 1009.1 hPa | 0 mm | - | - | - |
| 1777859200 | 7.22° C | 56% | 1008.8 hPa | 0 mm | - | - | - |
| 1777858097 | 7.22° C | 55% | 1008.7 hPa | 0 mm | - | - | - |
| 1777857306 | 7.78° C | 54% | 1008.6 hPa | 0 mm | - | - | - |
| 1777857066 | 7.78° C | 53% | 1008.5 hPa | 0 mm | - | - | - |
| 1777856695 | 8.33° C | 51% | 1008.4 hPa | 0 mm | - | - | - |
| 1777854929 | 8.89° C | 51% | 1008.1 hPa | 0 mm | - | - | - |
| 1777851646 | 10° C | 47% | 1007.3 hPa | 0 mm | - | - | - |
* Rain latest hour (hover to see other rain measurements)
** Current wind speed in m/s (hover to see current wind gust speed)